Time;durP1;ratioP1;P1;durP2;ratioP2;P2;SDS_P1;SDS_P2;PMS_P1;PMS_P2;Temp;Humidity;BMP_temperature;BMP_pressure;BME280_temperature;BME280_humidity;BME280_pressure;Samples;Min_cycle;Max_cycle;Signal;HPM_P1;HPM_P2
2021/03/22 00:02:04;;;;;;;61.45;35.67;;;-1.00;91.30;;;;;;5052021;28;20053;-81
2021/03/22 00:04:30;;;;;;;65.20;33.38;;;-1.00;91.20;;;;;;5053413;28;20029;-81
2021/03/22 00:06:56;;;;;;;60.53;33.42;;;-0.90;91.10;;;;;;5052283;28;20025;-81
2021/03/22 00:09:21;;;;;;;60.00;31.70;;;-0.90;91.20;;;;;;5053450;28;20021;-81
2021/03/22 00:11:47;;;;;;;63.05;32.92;;;-0.90;91.00;;;;;;5053353;28;20506;-81
2021/03/22 00:14:13;;;;;;;53.08;28.20;;;-0.90;91.20;;;;;;5053182;28;20502;-81
2021/03/22 00:16:38;;;;;;;57.38;31.40;;;-0.80;91.20;;;;;;5053587;28;20040;-81
2021/03/22 00:19:04;;;;;;;52.88;28.73;;;-0.80;91.40;;;;;;5052072;28;20417;-81
2021/03/22 00:21:30;;;;;;;48.22;24.88;;;-0.80;91.20;;;;;;5051963;28;20028;-81
2021/03/22 00:23:55;;;;;;;40.88;23.88;;;-0.80;90.80;;;;;;5053703;28;20044;-81
2021/03/22 00:26:21;;;;;;;42.92;24.08;;;-0.70;90.80;;;;;;5052020;28;20068;-81
2021/03/22 00:28:47;;;;;;;38.35;22.92;;;-0.70;90.70;;;;;;5053436;28;20019;-81
2021/03/22 00:31:14;;;;;;;41.88;24.30;;;-0.70;90.60;;;;;;5053226;28;20814;-81
2021/03/22 00:33:41;;;;;;;38.17;21.00;;;-0.70;90.70;;;;;;5051945;28;20021;-81
2021/03/22 00:36:08;;;;;;;33.75;19.30;;;-0.70;90.60;;;;;;5051643;28;20253;-81
2021/03/22 00:38:34;;;;;;;33.17;18.40;;;-0.70;90.60;;;;;;5053232;28;20036;-81
2021/03/22 00:41:00;;;;;;;34.35;20.20;;;-0.70;90.60;;;;;;5051883;28;20029;-81
2021/03/22 00:43:26;;;;;;;33.58;19.70;;;-0.70;90.60;;;;;;5051887;28;20025;-81
2021/03/22 00:45:58;;;;;;;35.75;21.42;;;-0.70;90.60;;;;;;5051883;28;20025;-81
2021/03/22 00:48:25;;;;;;;39.80;22.42;;;-0.70;90.60;;;;;;5063983;28;20029;-81
2021/03/22 00:50:51;;;;;;;38.15;22.48;;;-0.70;90.60;;;;;;5076749;28;20020;-80
2021/03/22 00:53:17;;;;;;;33.28;18.90;;;-0.70;90.80;;;;;;5077086;28;20881;-81
2021/03/22 00:55:44;;;;;;;31.05;18.58;;;-0.80;90.60;;;;;;5075472;28;20115;-81
2021/03/22 00:58:11;;;;;;;32.78;19.38;;;-0.70;90.60;;;;;;5076746;28;20100;-82
2021/03/22 01:00:51;;;;;;;37.65;21.58;;;-0.80;90.70;;;;;;5076492;28;20052;-82
2021/03/22 01:03:26;;;;;;;34.58;21.40;;;-0.80;90.90;;;;;;5076920;28;20017;-81
2021/03/22 01:05:52;;;;;;;34.30;19.40;;;-0.80;91.20;;;;;;5075341;28;20020;-81
2021/03/22 01:08:19;;;;;;;34.22;19.58;;;-0.90;91.10;;;;;;5075332;28;20035;-81
2021/03/22 01:10:56;;;;;;;38.88;20.55;;;-0.90;91.10;;;;;;5076493;28;20033;-81
2021/03/22 01:13:28;;;;;;;36.28;20.08;;;-0.90;91.10;;;;;;5076515;28;20036;-81
2021/03/22 01:15:54;;;;;;;34.17;21.00;;;-0.80;91.00;;;;;;5076713;28;20048;-82
2021/03/22 01:18:23;;;;;;;33.92;19.38;;;-0.90;90.80;;;;;;5074856;28;20059;-81
2021/03/22 01:20:54;;;;;;;37.60;20.70;;;-0.90;90.90;;;;;;5076410;28;20428;-82
2021/03/22 01:23:20;;;;;;;35.95;20.45;;;-0.80;90.90;;;;;;5076349;28;20025;-82
2021/03/22 01:25:45;;;;;;;41.08;20.85;;;-0.90;91.20;;;;;;5076514;28;20399;-81
2021/03/22 01:28:12;;;;;;;33.20;18.95;;;-0.90;91.10;;;;;;5076159;28;20024;-82
2021/03/22 01:30:55;;;;;;;30.33;18.17;;;-0.90;91.10;;;;;;5076144;28;20483;-82
2021/03/22 01:33:26;;;;;;;36.58;20.38;;;-0.90;91.20;;;;;;5074897;28;20028;-82
2021/03/22 01:35:53;;;;;;;30.45;18.17;;;-0.90;91.10;;;;;;5074782;28;20504;-82
2021/03/22 01:38:19;;;;;;;36.33;20.15;;;-0.90;91.10;;;;;;5075936;28;20025;-82
2021/03/22 01:41:04;;;;;;;33.40;18.95;;;-0.90;91.10;;;;;;5076243;28;20112;-82
2021/03/22 01:44:01;;;;;;;37.72;20.92;;;-0.90;91.40;;;;;;5076188;28;20024;-81
2021/03/22 01:46:27;;;;;;;41.05;21.38;;;-0.90;91.20;;;;;;5074489;28;20158;-81
2021/03/22 01:48:53;;;;;;;35.53;20.30;;;-0.90;91.50;;;;;;5074458;28;20059;-81
2021/03/22 01:51:20;;;;;;;37.17;19.70;;;-1.00;91.50;;;;;;5074498;28;20033;-82
2021/03/22 01:53:46;;;;;;;38.13;20.83;;;-0.90;91.40;;;;;;5074467;28;20028;-82
2021/03/22 01:56:34;;;;;;;35.78;19.35;;;-0.90;91.60;;;;;;5074426;28;20056;-81
2021/03/22 01:58:59;;;;;;;35.30;19.15;;;-0.90;91.30;;;;;;5053625;28;20039;-82
2021/03/22 02:01:29;;;;;;;34.50;19.17;;;-0.90;91.30;;;;;;5075448;28;20048;-83
2021/03/22 02:03:55;;;;;;;32.15;16.75;;;-0.90;91.40;;;;;;5074258;28;20170;-83
2021/03/22 02:06:21;;;;;;;29.20;17.10;;;-0.90;91.20;;;;;;5069425;28;20079;-83
2021/03/22 02:08:49;;;;;;;36.78;21.90;;;-0.90;91.30;;;;;;5055398;28;20036;-83
2021/03/22 02:11:27;;;;;;;33.78;19.92;;;-0.90;91.40;;;;;;5054080;28;20478;-83
2021/03/22 02:13:58;;;;;;;33.08;18.17;;;-0.90;91.30;;;;;;5054020;28;20124;-83
2021/03/22 02:16:32;;;;;;;33.83;18.83;;;-1.00;91.40;;;;;;5055274;28;20056;-83
2021/03/22 02:19:07;;;;;;;29.95;17.15;;;-0.90;91.30;;;;;;5053917;28;20036;-83
2021/03/22 02:21:54;;;;;;;27.98;15.85;;;-0.90;91.40;;;;;;5055120;28;20032;-82
2021/03/22 02:24:28;;;;;;;37.13;21.67;;;-0.90;91.30;;;;;;5055417;28;20060;-82
2021/03/22 02:27:25;;;;;;;29.30;17.40;;;-0.90;91.30;;;;;;5053673;28;20395;-82
2021/03/22 02:30:33;;;;;;;29.50;18.27;;;-0.90;91.20;;;;;;5053813;28;20430;-83
2021/03/22 02:33:20;;;;;;;38.40;20.95;;;-0.90;91.30;;;;;;5053786;28;20029;-83
2021/03/22 02:36:06;;;;;;;32.97;18.70;;;-0.90;91.50;;;;;;5055220;28;20029;-83
2021/03/22 02:38:50;;;;;;;38.85;21.10;;;-0.90;91.40;;;;;;5054768;28;20032;-82
2021/03/22 02:41:21;;;;;;;37.90;20.98;;;-0.90;91.40;;;;;;5053447;28;20021;-82
2021/03/22 02:44:08;;;;;;;32.75;19.50;;;-0.90;91.40;;;;;;5055043;28;20451;-82
2021/03/22 02:46:35;;;;;;;44.83;23.65;;;-0.90;91.40;;;;;;5053312;28;20025;-83
2021/03/22 02:49:04;;;;;;;47.53;24.90;;;-0.80;91.30;;;;;;5054725;28;20467;-83
2021/03/22 02:51:45;;;;;;;49.65;27.63;;;-0.80;91.30;;;;;;5054230;28;20053;-83
2021/03/22 02:54:49;;;;;;;44.42;27.00;;;-0.80;91.40;;;;;;5053311;28;20032;-83
2021/03/22 02:57:40;;;;;;;44.88;25.35;;;-0.90;91.30;;;;;;5050983;28;20399;-82
2021/03/22 03:00:16;;;;;;;45.30;21.70;;;-0.90;91.40;;;;;;5047254;28;20063;-83
2021/03/22 03:02:43;;;;;;;37.10;21.42;;;-0.90;91.40;;;;;;5052897;28;20044;-83
2021/03/22 03:05:16;;;;;;;41.63;21.75;;;-0.90;91.40;;;;;;5053151;28;20064;-83
2021/03/22 03:07:42;;;;;;;39.60;22.27;;;-1.00;91.50;;;;;;5053068;28;20028;-83
2021/03/22 03:10:10;;;;;;;38.10;21.33;;;-1.00;91.40;;;;;;5052458;28;20363;-83
2021/03/22 03:12:35;;;;;;;38.28;22.73;;;-1.00;91.30;;;;;;5052935;28;20025;-83
2021/03/22 03:15:03;;;;;;;32.88;19.63;;;-0.90;91.50;;;;;;5052895;28;20024;-83
2021/03/22 03:17:28;;;;;;;50.80;25.88;;;-1.00;91.30;;;;;;5054071;28;20060;-83
2021/03/22 03:19:55;;;;;;;49.55;24.40;;;-1.00;91.60;;;;;;5052789;28;20064;-82
2021/03/22 03:22:22;;;;;;;40.53;23.42;;;-1.00;91.80;;;;;;5052728;28;20033;-82
2021/03/22 03:24:48;;;;;;;39.55;21.60;;;-1.10;91.70;;;;;;5052752;28;20040;-83
2021/03/22 03:27:15;;;;;;;35.35;20.13;;;-1.10;91.80;;;;;;5052789;28;20112;-83
2021/03/22 03:29:42;;;;;;;43.22;24.20;;;-1.00;91.50;;;;;;5053844;28;20025;-82
2021/03/22 03:32:13;;;;;;;43.70;22.58;;;-1.10;91.60;;;;;;5052643;28;20033;-83
2021/03/22 03:34:39;;;;;;;41.60;24.02;;;-1.00;91.50;;;;;;5053849;28;20029;-83
2021/03/22 03:37:06;;;;;;;36.58;20.95;;;-1.00;91.60;;;;;;5053601;28;20033;-83
2021/03/22 03:39:32;;;;;;;30.42;19.40;;;-1.00;91.50;;;;;;5052304;28;20021;-83
2021/03/22 03:41:58;;;;;;;28.95;17.95;;;-1.00;91.60;;;;;;5052367;28;20479;-83
2021/03/22 03:44:24;;;;;;;30.15;18.83;;;-1.00;91.50;;;;;;5053649;28;20032;-82
2021/03/22 03:46:50;;;;;;;36.58;20.67;;;-1.00;91.40;;;;;;5052334;28;20025;-83
2021/03/22 03:49:15;;;;;;;32.92;19.23;;;-0.90;91.30;;;;;;5053397;28;20025;-83
2021/03/22 03:51:41;;;;;;;36.63;20.85;;;-1.00;91.30;;;;;;5053663;28;20089;-86
2021/03/22 03:54:08;;;;;;;36.63;21.60;;;-1.00;91.40;;;;;;5053742;28;20029;-86
2021/03/22 03:56:35;;;;;;;34.17;20.50;;;-1.00;91.30;;;;;;5052587;28;20368;-87
2021/03/22 03:59:01;;;;;;;32.65;19.40;;;-1.00;91.40;;;;;;5051620;28;20021;-85
2021/03/22 04:01:27;;;;;;;31.67;18.30;;;-1.10;91.50;;;;;;5051979;28;20052;-86
2021/03/22 04:03:54;;;;;;;39.25;21.30;;;-1.00;91.40;;;;;;5052124;28;20471;-85
2021/03/22 04:06:23;;;;;;;33.67;19.17;;;-1.10;91.60;;;;;;5053250;28;20075;-85
2021/03/22 04:08:54;;;;;;;34.17;19.85;;;-1.00;91.60;;;;;;5052149;28;20390;-85
2021/03/22 04:11:24;;;;;;;36.15;19.65;;;-1.00;91.50;;;;;;5051914;28;20021;-84
2021/03/22 04:13:51;;;;;;;30.23;18.45;;;-1.00;91.50;;;;;;5051679;28;20111;-86
2021/03/22 04:16:17;;;;;;;33.88;18.77;;;-0.90;91.40;;;;;;5053151;28;20387;-85
2021/03/22 04:18:43;;;;;;;35.78;20.45;;;-0.80;91.40;;;;;;5053137;28;20032;-84
2021/03/22 04:21:14;;;;;;;33.65;20.02;;;-0.80;91.20;;;;;;5051735;28;20117;-86
2021/03/22 04:23:42;;;;;;;29.88;19.38;;;-0.70;91.30;;;;;;5056345;28;20029;-84
2021/03/22 04:26:08;;;;;;;36.58;21.02;;;-0.60;91.30;;;;;;5057086;28;20029;-85
2021/03/22 04:28:34;;;;;;;35.92;20.20;;;-0.60;91.10;;;;;;5057121;28;20021;-83
2021/03/22 04:31:00;;;;;;;40.90;20.67;;;-0.50;91.00;;;;;;5056991;28;20398;-85
2021/03/22 04:33:26;;;;;;;48.17;24.67;;;-0.50;90.90;;;;;;5057105;28;20079;-85
2021/03/22 04:35:52;;;;;;;41.00;22.13;;;-0.40;90.90;;;;;;5055613;28;20466;-86
2021/03/22 04:38:19;;;;;;;38.00;22.08;;;-0.40;90.80;;;;;;5056896;28;20025;-85
2021/03/22 04:40:45;;;;;;;38.38;22.08;;;-0.40;90.80;;;;;;5056817;28;20025;-83
2021/03/22 04:43:11;;;;;;;36.35;22.00;;;-0.30;90.70;;;;;;5056590;28;20024;-85
2021/03/22 04:45:36;;;;;;;32.35;18.35;;;-0.30;90.60;;;;;;5054861;28;20360;-86
2021/03/22 04:48:03;;;;;;;31.52;18.42;;;-0.20;90.80;;;;;;5056160;28;20032;-84
2021/03/22 04:50:29;;;;;;;32.67;18.40;;;-0.20;90.70;;;;;;5056317;28;20474;-85
2021/03/22 04:52:55;;;;;;;27.63;15.98;;;-0.10;91.00;;;;;;5054920;28;20032;-85
2021/03/22 04:55:22;;;;;;;29.30;16.00;;;0.00;90.70;;;;;;5054679;28;20035;-86
2021/03/22 04:57:48;;;;;;;33.22;17.70;;;0.10;90.40;;;;;;5056386;28;20039;-87
2021/03/22 05:00:27;;;;;;;31.98;17.67;;;0.20;90.20;;;;;;5056237;28;20037;-85
2021/03/22 05:02:54;;;;;;;28.42;15.75;;;0.30;90.00;;;;;;5055192;28;20028;-87
2021/03/22 05:05:21;;;;;;;35.70;19.13;;;0.30;90.10;;;;;;5054795;28;20025;-85
2021/03/22 05:07:46;;;;;;;30.25;16.85;;;0.30;90.00;;;;;;5054728;28;20428;-85
2021/03/22 05:10:26;;;;;;;28.52;17.40;;;0.30;90.10;;;;;;5056272;28;20023;-84
2021/03/22 05:12:51;;;;;;;30.88;17.13;;;0.40;90.00;;;;;;5055826;28;20023;-84
2021/03/22 05:15:17;;;;;;;32.22;17.98;;;0.40;90.20;;;;;;5056796;28;20021;-84
2021/03/22 05:17:43;;;;;;;33.72;18.70;;;0.50;90.10;;;;;;5055961;28;20100;-85
2021/03/22 05:20:24;;;;;;;29.92;17.83;;;0.50;90.00;;;;;;5054503;28;20079;-84
2021/03/22 05:22:50;;;;;;;30.45;17.42;;;0.50;90.00;;;;;;5054666;28;20112;-85
2021/03/22 05:25:16;;;;;;;35.13;19.20;;;0.60;90.00;;;;;;5055546;28;20509;-84
2021/03/22 05:27:43;;;;;;;32.15;18.20;;;0.70;89.80;;;;;;5054640;28;20031;-85
2021/03/22 05:30:09;;;;;;;32.17;18.08;;;0.70;89.60;;;;;;5054332;28;20024;-83
2021/03/22 05:32:36;;;;;;;35.65;20.40;;;0.80;89.40;;;;;;5055722;28;20070;-84
2021/03/22 05:35:08;;;;;;;36.83;19.65;;;0.80;89.00;;;;;;5054124;28;20021;-84
2021/03/22 05:37:34;;;;;;;36.58;20.92;;;0.90;89.40;;;;;;5054200;28;20023;-83
2021/03/22 05:39:59;;;;;;;41.80;21.80;;;1.00;89.30;;;;;;5054113;28;20017;-83
2021/03/22 05:42:28;;;;;;;39.28;21.10;;;1.10;89.00;;;;;;5055183;28;20033;-83
2021/03/22 05:45:01;;;;;;;36.15;19.45;;;1.20;88.70;;;;;;5055225;28;20371;-83
2021/03/22 05:47:52;;;;;;;33.88;19.90;;;1.20;88.50;;;;;;5053919;28;20490;-84
2021/03/22 05:51:01;;;;;;;34.83;19.10;;;1.30;88.30;;;;;;5054033;28;20064;-83
2021/03/22 05:54:05;;;;;;;30.30;19.13;;;1.30;88.40;;;;;;5047677;28;20033;-77
2021/03/22 05:56:53;;;;;;;32.90;16.85;;;1.30;88.00;;;;;;5038527;28;20029;-83
2021/03/22 05:59:47;;;;;;;25.75;16.38;;;1.50;87.90;;;;;;5055005;28;20074;-84
2021/03/22 06:02:31;;;;;;;26.42;16.13;;;1.50;87.30;;;;;;5053327;28;20044;-84
2021/03/22 06:05:06;;;;;;;27.83;16.75;;;1.60;87.30;;;;;;5053554;28;20375;-81
2021/03/22 06:07:45;;;;;;;38.58;19.85;;;1.60;87.30;;;;;;5054850;28;20029;-81
2021/03/22 06:10:16;;;;;;;29.40;17.58;;;1.50;87.70;;;;;;5054773;28;20031;-81
2021/03/22 06:12:51;;;;;;;29.42;18.45;;;1.60;87.20;;;;;;5053540;28;20458;-82
2021/03/22 06:15:44;;;;;;;28.20;17.92;;;1.60;87.40;;;;;;5054709;28;20057;-82
2021/03/22 06:18:12;;;;;;;36.97;18.55;;;1.60;87.50;;;;;;5033523;28;20022;-85
2021/03/22 06:20:41;;;;;;;28.63;17.65;;;1.70;87.20;;;;;;5033430;28;20083;-84
2021/03/22 06:23:21;;;;;;;29.80;18.60;;;1.80;86.50;;;;;;5048174;28;20374;-83
2021/03/22 06:25:48;;;;;;;32.83;19.35;;;1.80;86.80;;;;;;5053535;28;20029;-82
2021/03/22 06:28:14;;;;;;;29.48;18.08;;;1.80;87.00;;;;;;5053389;28;20079;-79
2021/03/22 06:30:44;;;;;;;30.58;18.60;;;1.80;87.10;;;;;;5054604;28;20033;-80
2021/03/22 06:33:23;;;;;;;30.42;19.08;;;1.90;87.00;;;;;;5053409;28;20033;-80
2021/03/22 06:35:49;;;;;;;33.97;19.10;;;1.80;87.20;;;;;;5054725;28;20029;-79
2021/03/22 06:38:14;;;;;;;33.03;19.48;;;1.90;87.30;;;;;;5054783;28;20033;-79
2021/03/22 06:40:40;;;;;;;44.85;27.48;;;1.90;87.40;;;;;;5054633;28;20029;-80
2021/03/22 06:43:22;;;;;;;47.78;29.38;;;1.90;87.00;;;;;;5053375;28;20021;-81
2021/03/22 06:45:52;;;;;;;46.47;27.27;;;2.00;86.80;;;;;;5033852;28;20116;-82
2021/03/22 06:48:28;;;;;;;49.67;27.42;;;2.10;86.70;;;;;;5034669;28;20072;-81
2021/03/22 06:51:15;;;;;;;49.88;26.45;;;2.20;86.10;;;;;;5033231;28;20021;-80
2021/03/22 06:53:45;;;;;;;46.60;25.55;;;2.20;86.30;;;;;;5046530;28;20033;-80
2021/03/22 06:56:11;;;;;;;55.40;25.40;;;2.30;86.50;;;;;;5066691;28;20029;-81
2021/03/22 06:58:37;;;;;;;44.20;24.83;;;2.40;86.30;;;;;;5037401;28;20099;-81
2021/03/22 07:01:20;;;;;;;37.00;21.23;;;2.40;86.10;;;;;;5053942;28;20056;-81
2021/03/22 07:03:46;;;;;;;33.95;20.20;;;2.60;85.60;;;;;;5054643;28;20017;-81
2021/03/22 07:06:21;;;;;;;33.92;20.63;;;2.60;85.70;;;;;;5054204;28;20044;-80
2021/03/22 07:08:47;;;;;;;33.40;20.17;;;2.60;85.50;;;;;;5053087;28;20033;-81
2021/03/22 07:11:30;;;;;;;41.55;21.48;;;2.80;85.40;;;;;;5052660;28;20021;-80
2021/03/22 07:14:04;;;;;;;39.05;22.20;;;2.80;84.70;;;;;;5052829;28;20040;-82
2021/03/22 07:16:32;;;;;;;40.83;25.70;;;2.90;85.20;;;;;;5052737;28;20025;-82
2021/03/22 07:19:19;;;;;;;39.22;21.77;;;2.90;85.30;;;;;;5052729;28;20029;-82
2021/03/22 07:21:58;;;;;;;37.00;22.77;;;3.00;85.10;;;;;;5053930;28;20024;-80
2021/03/22 07:25:01;;;;;;;42.45;24.85;;;2.80;83.80;;;;;;5054035;28;20025;-80
2021/03/22 07:27:47;;;;;;;43.90;23.77;;;2.80;84.50;;;;;;5052610;28;20032;-80
2021/03/22 07:30:26;;;;;;;35.08;21.45;;;2.80;84.90;;;;;;5052659;28;20033;-79
2021/03/22 07:33:14;;;;;;;39.28;21.05;;;3.00;84.20;;;;;;5052509;28;20027;-80
2021/03/22 07:36:02;;;;;;;35.15;21.33;;;3.00;84.70;;;;;;5054106;28;20096;-81
2021/03/22 07:39:03;;;;;;;36.28;21.20;;;3.10;83.80;;;;;;5053818;28;20021;-80
2021/03/22 07:41:35;;;;;;;35.05;21.70;;;3.10;83.40;;;;;;5051156;28;20028;-79
2021/03/22 07:44:16;;;;;;;37.22;20.85;;;3.00;83.70;;;;;;5052411;28;20021;-82
2021/03/22 07:46:42;;;;;;;36.17;20.70;;;3.00;84.10;;;;;;5053720;28;20028;-82
2021/03/22 07:49:13;;;;;;;31.98;19.50;;;3.00;83.80;;;;;;5052361;28;20544;-81
2021/03/22 07:51:45;;;;;;;34.13;20.88;;;3.10;83.60;;;;;;5052350;28;20129;-81
2021/03/22 07:54:26;;;;;;;35.35;21.60;;;3.10;84.30;;;;;;5052231;28;20170;-82
2021/03/22 07:57:09;;;;;;;36.13;21.75;;;3.10;84.10;;;;;;5052032;28;20532;-82
2021/03/22 08:00:20;;;;;;;35.05;21.08;;;3.20;84.70;;;;;;5053480;28;20672;-82
2021/03/22 08:03:01;;;;;;;37.33;19.77;;;3.40;84.30;;;;;;5031588;28;20045;-82
2021/03/22 08:05:57;;;;;;;42.25;23.50;;;3.50;84.30;;;;;;5052819;28;20033;-82
2021/03/22 08:08:28;;;;;;;40.30;23.58;;;3.70;84.10;;;;;;5053411;28;20355;-82
2021/03/22 08:11:04;;;;;;;39.63;21.42;;;3.80;84.30;;;;;;5053558;28;20029;-82
2021/03/22 08:13:48;;;;;;;35.42;21.95;;;3.90;84.10;;;;;;5052139;28;20021;-83
2021/03/22 08:16:43;;;;;;;33.25;20.02;;;4.10;83.60;;;;;;5052172;28;20078;-83
2021/03/22 08:19:22;;;;;;;33.97;22.38;;;4.30;82.70;;;;;;5048703;28;20052;-82
2021/03/22 08:22:10;;;;;;;44.85;24.38;;;4.40;82.30;;;;;;5051997;28;20403;-82
2021/03/22 08:24:50;;;;;;;33.40;20.02;;;4.50;81.90;;;;;;5052152;28;20112;-82
2021/03/22 08:27:21;;;;;;;36.20;20.27;;;4.70;82.60;;;;;;5053398;28;20533;-81
2021/03/22 08:30:06;;;;;;;36.95;23.55;;;4.90;81.70;;;;;;5053189;28;20025;-80
2021/03/22 08:32:49;;;;;;;28.70;18.65;;;5.00;81.00;;;;;;5053402;28;20158;-81
2021/03/22 08:35:28;;;;;;;31.63;20.10;;;5.10;80.80;;;;;;5051763;28;20078;-80
2021/03/22 08:37:57;;;;;;;30.95;19.35;;;5.20;80.20;;;;;;5052802;28;20029;-81
2021/03/22 08:40:54;;;;;;;32.20;19.08;;;5.40;80.40;;;;;;5050486;28;20064;-82
2021/03/22 08:43:51;;;;;;;26.40;17.02;;;5.60;79.50;;;;;;5052931;28;20841;-85
2021/03/22 08:46:33;;;;;;;33.65;20.83;;;5.70;78.40;;;;;;5051704;28;20387;-82
2021/03/22 08:49:01;;;;;;;31.27;20.02;;;5.80;78.30;;;;;;5053111;28;20021;-83
2021/03/22 08:51:31;;;;;;;46.42;26.25;;;6.00;78.40;;;;;;5051666;28;20128;-85
2021/03/22 08:53:59;;;;;;;32.45;22.35;;;6.10;78.40;;;;;;5051478;28;20025;-83
2021/03/22 08:56:53;;;;;;;33.45;20.63;;;6.20;77.10;;;;;;5053043;28;20421;-82
2021/03/22 08:59:20;;;;;;;36.72;20.77;;;6.30;75.00;;;;;;5051744;28;20032;-81
2021/03/22 09:01:47;;;;;;;29.75;18.80;;;6.30;76.00;;;;;;5051349;28;20406;-81
2021/03/22 09:04:21;;;;;;;32.47;19.55;;;6.40;76.50;;;;;;5052939;28;20023;-81
2021/03/22 09:07:04;;;;;;;34.65;21.85;;;6.40;74.50;;;;;;5051641;28;20056;-79
2021/03/22 09:09:33;;;;;;;29.63;20.75;;;6.40;75.10;;;;;;5054392;28;20087;-83
2021/03/22 09:12:09;;;;;;;23.63;15.55;;;6.50;74.70;;;;;;5055299;28;20021;-84
2021/03/22 09:14:42;;;;;;;28.83;17.23;;;6.60;73.00;;;;;;5055169;28;20498;-82
2021/03/22 09:17:43;;;;;;;23.92;16.67;;;6.70;74.90;;;;;;5055176;28;20059;-82
2021/03/22 09:20:26;;;;;;;;;;;6.80;75.10;;;;;;5056794;28;20107;-82
2021/03/22 09:22:57;;;;;;;29.88;18.90;;;6.80;73.80;;;;;;5056503;28;19950;-80
2021/03/22 09:25:56;;;;;;;33.85;21.08;;;6.90;74.00;;;;;;5054956;28;20509;-83
2021/03/22 09:28:24;;;;;;;33.22;23.13;;;7.00;74.00;;;;;;5054449;28;20021;-79
2021/03/22 09:31:00;;;;;;;24.48;17.13;;;7.00;73.90;;;;;;5056158;28;20035;-80
2021/03/22 09:33:54;;;;;;;23.85;15.73;;;7.20;73.50;;;;;;5054911;28;20106;-81
2021/03/22 09:36:29;;;;;;;23.13;15.95;;;7.30;72.00;;;;;;5056122;28;20059;-90
2021/03/22 09:38:55;;;;;;;25.52;16.90;;;7.50;72.50;;;;;;5054941;28;20025;-79
2021/03/22 09:41:58;;;;;;;26.23;18.13;;;7.60;72.10;;;;;;5056042;28;20029;-82
2021/03/22 09:44:50;;;;;;;27.35;17.80;;;7.80;72.70;;;;;;5054484;28;20029;-84
2021/03/22 09:47:20;;;;;;;23.15;15.15;;;8.00;69.40;;;;;;5051970;28;20483;-87
2021/03/22 09:49:58;;;;;;;27.17;16.83;;;8.20;68.60;;;;;;5054350;28;20064;-83
2021/03/22 09:52:39;;;;;;;23.42;16.05;;;8.10;67.80;;;;;;5054531;28;20357;-82
2021/03/22 09:55:26;;;;;;;24.58;15.90;;;8.10;69.30;;;;;;5054514;28;20087;-81
2021/03/22 09:58:16;;;;;;;24.98;16.73;;;8.20;68.90;;;;;;5054414;28;20029;-85
2021/03/22 10:00:41;;;;;;;20.08;14.23;;;8.20;68.20;;;;;;5053884;28;20486;-81
2021/03/22 10:03:32;;;;;;;21.63;15.00;;;8.30;69.20;;;;;;5055575;28;20028;-87
2021/03/22 10:06:00;;;;;;;19.52;14.85;;;8.30;69.10;;;;;;5054429;28;20025;-83
2021/03/22 10:08:31;;;;;;;21.27;14.88;;;8.20;67.90;;;;;;5055567;28;20112;-83
2021/03/22 10:10:58;;;;;;;;;;;8.20;68.00;;;;;;5054810;28;20029;-85
2021/03/22 10:13:28;;;;;;;29.13;18.52;;;8.10;67.30;;;;;;5055491;28;20259;-85
2021/03/22 10:16:01;;;;;;;35.22;23.02;;;8.00;68.40;;;;;;5054255;28;20032;-85
2021/03/22 10:18:55;;;;;;;36.55;21.88;;;7.90;69.10;;;;;;5054102;28;20368;-81
2021/03/22 10:21:43;;;;;;;38.88;23.95;;;7.60;68.30;;;;;;5053980;28;20032;-82
2021/03/22 10:24:14;;;;;;;21.30;14.52;;;7.50;69.60;;;;;;5054025;28;20032;-84
2021/03/22 10:26:41;;;;;;;20.38;14.80;;;7.60;70.10;;;;;;5055469;28;20021;-83
2021/03/22 10:29:10;;;;;;;23.05;15.18;;;7.60;70.40;;;;;;5053775;28;20410;-83
2021/03/22 10:31:36;;;;;;;22.92;15.05;;;7.50;69.80;;;;;;5055147;28;20467;-83
2021/03/22 10:34:02;;;;;;;19.77;13.30;;;7.50;69.80;;;;;;5054997;28;20032;-83
2021/03/22 10:36:32;;;;;;;29.30;17.65;;;7.50;70.20;;;;;;5054634;28;20032;-83
2021/03/22 10:38:59;;;;;;;22.38;15.77;;;7.40;69.60;;;;;;5053530;28;20037;-83
2021/03/22 10:41:35;;;;;;;16.83;12.95;;;7.40;69.40;;;;;;5054542;28;20037;-84
2021/03/22 10:44:27;;;;;;;18.90;12.73;;;7.60;69.80;;;;;;5054602;28;20032;-84
2021/03/22 10:47:11;;;;;;;20.85;13.00;;;7.60;69.90;;;;;;5054378;28;20029;-84
2021/03/22 10:49:37;;;;;;;18.02;13.20;;;7.80;69.90;;;;;;5053639;28;20463;-84
2021/03/22 10:52:17;;;;;;;21.10;13.35;;;7.90;69.20;;;;;;5053368;28;20039;-85
2021/03/22 10:54:45;;;;;;;22.08;14.57;;;7.90;68.90;;;;;;5053325;28;20079;-83
2021/03/22 10:57:24;;;;;;;25.00;13.50;;;7.90;69.20;;;;;;5053352;28;20386;-83
2021/03/22 10:59:53;;;;;;;20.10;12.75;;;7.90;68.00;;;;;;5054437;28;20082;-83
2021/03/22 11:02:25;;;;;;;16.27;12.27;;;7.80;67.70;;;;;;5052954;28;20049;-84
2021/03/22 11:04:51;;;;;;;19.02;13.15;;;7.70;66.70;;;;;;5054486;28;20104;-83
2021/03/22 11:07:20;;;;;;;20.30;12.57;;;7.70;67.00;;;;;;5053086;28;20021;-83
2021/03/22 11:09:57;;;;;;;17.38;12.32;;;7.80;67.20;;;;;;5054234;28;20025;-83
2021/03/22 11:12:23;;;;;;;17.77;12.40;;;7.90;67.10;;;;;;5052955;28;20025;-83
2021/03/22 11:14:54;;;;;;;21.83;14.18;;;8.10;66.30;;;;;;5052986;28;20029;-83
2021/03/22 11:17:23;;;;;;;18.25;12.20;;;8.30;68.00;;;;;;5054165;28;20489;-83
2021/03/22 11:19:49;;;;;;;18.63;13.07;;;8.50;67.40;;;;;;5052873;28;20086;-82
2021/03/22 11:22:29;;;;;;;15.27;10.93;;;8.80;64.60;;;;;;5052749;28;20433;-83
2021/03/22 11:24:56;;;;;;;15.10;10.13;;;9.20;62.00;;;;;;5052716;28;20475;-83
2021/03/22 11:27:24;;;;;;;20.05;13.70;;;9.40;60.60;;;;;;5052696;28;20036;-83
2021/03/22 11:30:04;;;;;;;17.50;11.75;;;9.50;58.80;;;;;;5054021;28;20082;-83
2021/03/22 11:32:34;;;;;;;12.25;9.02;;;9.60;60.00;;;;;;5053436;28;20147;-83
2021/03/22 11:35:12;;;;;;;14.60;9.82;;;9.70;60.10;;;;;;5053840;28;20056;-83
2021/03/22 11:37:49;;;;;;;14.30;10.43;;;9.70;56.90;;;;;;5053801;28;20028;-83
2021/03/22 11:40:21;;;;;;;17.38;11.52;;;9.70;54.60;;;;;;5052600;28;20379;-83
2021/03/22 11:43:01;;;;;;;15.30;10.95;;;9.50;54.20;;;;;;5052523;28;20025;-83
2021/03/22 11:45:36;;;;;;;15.45;11.10;;;9.20;53.40;;;;;;5052456;28;20074;-84
2021/03/22 11:48:05;;;;;;;13.43;9.20;;;9.10;54.70;;;;;;5052415;28;20025;-83
2021/03/22 11:50:41;;;;;;;12.90;8.98;;;8.90;52.10;;;;;;5051755;28;20017;-83
2021/03/22 11:53:12;;;;;;;14.50;10.18;;;8.70;52.00;;;;;;5052452;28;20032;-87
2021/03/22 11:55:42;;;;;;;14.80;10.98;;;8.60;52.10;;;;;;5052303;28;20047;-83
2021/03/22 11:58:31;;;;;;;19.70;11.23;;;8.40;52.70;;;;;;5052352;28;20025;-83
2021/03/22 12:01:28;;;;;;;21.88;13.27;;;8.30;53.90;;;;;;5051971;28;20051;-84
2021/03/22 12:04:05;;;;;;;19.45;13.60;;;8.30;54.30;;;;;;5052320;28;20028;-83
2021/03/22 12:06:47;;;;;;;19.42;13.75;;;8.00;56.10;;;;;;5053781;28;20021;-81
2021/03/22 12:09:13;;;;;;;22.80;15.82;;;7.90;58.70;;;;;;5052274;28;20029;-82
2021/03/22 12:11:39;;;;;;;21.38;14.48;;;7.60;60.50;;;;;;5053830;28;20033;-82
2021/03/22 12:14:04;;;;;;;25.75;17.38;;;7.40;61.70;;;;;;5052372;28;20118;-81
2021/03/22 12:16:35;;;;;;;21.20;14.48;;;7.20;63.40;;;;;;5052564;28;20021;-82
2021/03/22 12:19:08;;;;;;;24.45;15.48;;;7.10;63.90;;;;;;5052049;28;20483;-81
2021/03/22 12:21:36;;;;;;;24.95;16.58;;;7.10;64.60;;;;;;5052036;28;20112;-81
2021/03/22 12:24:03;;;;;;;24.52;17.10;;;7.00;64.70;;;;;;5053234;28;20045;-80
2021/03/22 12:26:30;;;;;;;25.20;16.15;;;7.00;64.40;;;;;;5053376;28;20029;-79
2021/03/22 12:28:56;;;;;;;25.35;15.90;;;7.00;64.50;;;;;;5053393;28;20021;-80
2021/03/22 12:31:28;;;;;;;21.02;14.32;;;7.00;63.70;;;;;;5052050;28;20025;-80
2021/03/22 12:33:57;;;;;;;26.92;16.25;;;7.10;63.70;;;;;;5051909;28;20422;-80
2021/03/22 12:36:23;;;;;;;27.70;18.65;;;7.20;63.80;;;;;;5051936;28;20036;-80
2021/03/22 12:38:48;;;;;;;26.85;17.02;;;7.10;64.10;;;;;;5053184;28;20021;-80
2021/03/22 12:41:35;;;;;;;31.42;20.25;;;7.10;64.40;;;;;;5053399;28;20374;-80
2021/03/22 12:44:03;;;;;;;36.35;21.55;;;7.00;65.00;;;;;;5055290;28;20060;-79
2021/03/22 12:46:29;;;;;;;30.20;17.85;;;7.00;65.20;;;;;;5056951;28;20039;-80
2021/03/22 12:48:55;;;;;;;27.52;18.27;;;7.10;65.00;;;;;;5055467;28;20028;-81
2021/03/22 12:51:21;;;;;;;30.48;19.58;;;7.20;64.60;;;;;;5056114;28;20025;-81
2021/03/22 12:53:47;;;;;;;22.20;14.52;;;7.20;64.50;;;;;;5055590;28;20112;-81
2021/03/22 12:56:14;;;;;;;22.27;15.90;;;7.20;64.00;;;;;;5055532;28;20029;-81
2021/03/22 12:58:41;;;;;;;23.92;17.10;;;7.30;64.30;;;;;;5055220;28;20107;-80
2021/03/22 13:01:07;;;;;;;42.50;28.83;;;7.30;64.00;;;;;;5057628;28;20049;-80
2021/03/22 13:03:33;;;;;;;23.35;15.55;;;7.30;63.60;;;;;;5055299;28;20025;-81
2021/03/22 13:05:59;;;;;;;27.38;15.77;;;7.40;63.20;;;;;;5055130;28;20017;-81